createdAt,value
2019-04-10T00:01:40.966Z,14.77
2019-04-10T00:04:47.781Z,14.30
2019-04-10T00:07:35.645Z,16.50
2019-04-10T00:10:42.005Z,13.97
2019-04-10T00:13:29.601Z,14.43
2019-04-10T00:48:52.337Z,13.43
2019-04-10T00:51:41.613Z,14.13
2019-04-10T00:54:31.155Z,13.87
2019-04-10T00:57:19.211Z,13.10
2019-04-10T01:00:06.704Z,15.87
2019-04-10T01:02:54.346Z,16.30
2019-04-10T01:06:01.725Z,16.93
2019-04-10T01:15:14.116Z,14.07
2019-04-10T01:18:02.522Z,14.63
2019-04-10T01:24:02.261Z,14.53
2019-04-10T01:26:49.734Z,13.87
2019-04-10T01:29:39.878Z,13.80
2019-04-10T01:32:27.964Z,16.43
2019-04-10T01:35:35.557Z,15.57
2019-04-10T01:38:23.027Z,12.40
2019-04-10T01:44:22.741Z,12.93
2019-04-10T01:50:08.344Z,13.40
2019-04-10T01:52:59.647Z,13.03
2019-04-10T01:55:47.384Z,13.77
2019-04-10T02:04:58.471Z,12.63
2019-04-10T02:11:32.275Z,13.50
2019-04-10T02:14:20.723Z,13.10
2019-04-10T02:17:08.517Z,14.70
2019-04-10T02:20:02.995Z,13.03
2019-04-10T02:47:14.733Z,12.43
2019-04-10T03:08:06.994Z,10.77
2019-04-10T03:11:00.404Z,11.13
2019-04-10T03:13:45.186Z,11.27
2019-04-10T03:16:53.394Z,11.20
2019-04-10T03:22:54.065Z,12.67
2019-04-10T03:25:41.653Z,11.77
2019-04-10T03:28:29.284Z,12.30
2019-04-10T03:31:17.173Z,11.60
2019-04-10T03:37:18.169Z,12.47
2019-04-10T03:40:25.142Z,13.00
2019-04-10T03:46:01.489Z,9.93
2019-04-10T03:48:51.519Z,10.67
2019-04-10T03:51:32.396Z,10.47
2019-04-10T03:54:39.214Z,11.23
2019-04-10T03:57:20.565Z,11.27
2019-04-10T04:03:20.450Z,11.33
2019-04-10T04:09:35.649Z,13.50
2019-04-10T04:15:35.912Z,10.30
2019-04-10T04:27:42.664Z,10.27
2019-04-10T04:33:41.939Z,12.07
2019-04-10T04:36:49.184Z,12.23
2019-04-10T04:39:38.178Z,12.50
2019-04-10T04:42:26.522Z,11.37
2019-04-10T04:48:34.702Z,13.07
2019-04-10T04:51:15.870Z,12.87
2019-04-10T04:53:56.906Z,13.23
2019-04-10T04:56:44.531Z,12.50
2019-04-10T04:59:32.452Z,13.23
2019-04-10T05:02:21.983Z,12.37
2019-04-10T05:05:10.951Z,15.10
2019-04-10T05:08:02.244Z,14.03
2019-04-10T05:10:49.654Z,13.87
2019-04-10T05:13:38.335Z,13.10
2019-04-10T05:16:25.833Z,13.87
2019-04-10T05:19:14.319Z,15.73
2019-04-10T05:22:01.879Z,12.43
2019-04-10T05:24:49.493Z,14.03
2019-04-10T05:27:37.555Z,13.77
2019-04-10T05:30:25.128Z,13.17
2019-04-10T05:33:12.739Z,17.70
2019-04-10T05:36:01.254Z,12.87
2019-04-10T05:38:51.002Z,13.27
2019-04-10T05:41:39.931Z,13.00
2019-04-10T05:44:31.798Z,14.80
2019-04-10T05:47:19.796Z,13.70
2019-04-10T05:50:00.602Z,15.13
2019-04-10T05:52:48.162Z,15.87
2019-04-10T05:55:36.513Z,16.47
2019-04-10T05:58:25.806Z,25.43
2019-04-10T06:01:15.686Z,25.63
2019-04-10T06:07:10.697Z,28.43
2019-04-10T07:02:50.571Z,14.83
2019-04-10T08:01:44.807Z,19.90
2019-04-10T08:04:33.165Z,13.37
2019-04-10T08:07:40.611Z,16.73
2019-04-10T08:13:24.592Z,12.73
2019-04-10T08:16:16.975Z,15.77
2019-04-10T08:19:04.663Z,15.37
2019-04-10T08:30:41.938Z,14.23
2019-04-10T09:02:48.611Z,16.90
2019-04-10T09:05:36.256Z,17.10
2019-04-10T09:08:24.583Z,14.60
2019-04-10T09:11:13.036Z,15.33
2019-04-10T09:14:01.065Z,24.93
2019-04-10T09:19:40.312Z,16.67
2019-04-10T09:22:41.932Z,16.00
2019-04-10T09:25:19.681Z,15.13
2019-04-10T09:28:10.467Z,20.33
2019-04-10T09:30:59.663Z,17.57
2019-04-10T09:34:06.053Z,14.77
2019-04-10T09:36:53.653Z,20.10
2019-04-10T09:39:41.356Z,19.90
2019-04-10T09:42:48.122Z,18.90
2019-04-10T09:45:37.155Z,19.23
2019-04-10T09:48:26.439Z,16.13
2019-04-10T09:51:19.249Z,15.83
2019-04-10T09:54:07.859Z,15.67
2019-04-10T09:56:57.115Z,16.23
2019-04-10T09:59:46.077Z,15.37
2019-04-10T10:02:35.765Z,13.00
2019-04-10T10:05:24.515Z,17.67
2019-04-10T10:08:12.332Z,16.53
2019-04-10T10:10:59.817Z,22.70
2019-04-10T10:13:48.260Z,12.87
2019-04-10T10:16:35.905Z,17.50
2019-04-10T10:19:42.615Z,18.30
2019-04-10T10:22:32.000Z,15.97
2019-04-10T10:25:21.570Z,16.23
2019-04-10T10:28:09.192Z,18.50
2019-04-10T10:30:57.895Z,16.70
2019-04-10T10:36:41.948Z,21.40
2019-04-10T10:39:28.560Z,14.40
2019-04-10T10:42:17.464Z,17.17
2019-04-10T10:45:04.791Z,16.50
2019-04-10T10:47:54.794Z,21.43
2019-04-10T10:50:42.270Z,15.23
2019-04-10T10:53:48.607Z,15.97
2019-04-10T10:56:36.277Z,14.83
2019-04-10T10:59:25.100Z,14.70
2019-04-10T11:02:15.774Z,16.37
2019-04-10T11:05:06.925Z,25.60
2019-04-10T11:07:53.114Z,15.43
2019-04-10T11:54:37.607Z,16.97
2019-04-10T11:57:45.896Z,16.23
2019-04-10T12:00:33.269Z,12.73
2019-04-10T14:01:41.802Z,16.07
2019-04-10T14:04:29.916Z,16.20
2019-04-10T14:07:36.503Z,16.37
2019-04-10T14:10:44.742Z,17.77
2019-04-10T14:13:32.341Z,15.33
2019-04-10T14:16:20.332Z,17.73
2019-04-10T14:19:09.625Z,16.30
2019-04-10T14:21:57.553Z,14.97
2019-04-10T14:24:48.233Z,16.67
2019-04-10T14:27:34.493Z,15.23
2019-04-10T15:05:50.954Z,14.70
2019-04-10T15:08:37.782Z,14.80
2019-04-10T15:11:26.705Z,14.43
2019-04-10T15:14:15.311Z,15.73
2019-04-10T15:17:05.981Z,15.43
2019-04-10T15:19:53.614Z,15.73
2019-04-10T15:23:00.952Z,15.07
2019-04-10T15:25:56.180Z,14.90
2019-04-10T15:35:12.572Z,15.13
2019-04-10T15:38:01.889Z,13.93
2019-04-10T15:44:02.827Z,15.37
2019-04-10T15:46:51.260Z,16.47
2019-04-10T15:49:39.272Z,14.93
2019-04-10T15:52:20.596Z,13.60
2019-04-10T15:58:15.009Z,15.27
2019-04-10T16:04:31.688Z,13.20
2019-04-10T16:07:20.278Z,13.03
2019-04-10T16:10:28.866Z,12.43
2019-04-10T16:13:28.206Z,13.77
2019-04-10T17:02:59.415Z,12.53
2019-04-10T17:05:48.022Z,11.77
2019-04-10T17:11:53.828Z,10.83
2019-04-10T17:14:41.978Z,12.07
2019-04-10T17:20:23.102Z,13.80
2019-04-10T17:23:10.649Z,13.10
2019-04-10T17:25:58.334Z,11.47
2019-04-10T17:28:48.339Z,13.27
2019-04-10T17:31:36.622Z,13.00
2019-04-10T17:37:26.576Z,13.90
2019-04-10T17:40:27.449Z,10.77
2019-04-10T17:43:05.550Z,14.67
2019-04-10T17:45:47.060Z,11.47
2019-04-10T17:51:43.946Z,10.63
2019-04-10T17:54:32.173Z,14.47
2019-04-10T17:57:19.769Z,10.97
2019-04-10T18:00:07.496Z,12.93
2019-04-10T18:03:03.433Z,10.80
2019-04-10T18:05:53.105Z,13.10
2019-04-10T18:08:59.591Z,14.33
2019-04-10T18:11:54.044Z,11.83
2019-04-10T18:14:42.638Z,11.20
2019-04-10T18:17:31.485Z,13.37
2019-04-10T18:20:19.909Z,10.67
2019-04-10T18:23:09.311Z,10.17
2019-04-10T18:25:58.312Z,13.80
2019-04-10T18:28:45.900Z,15.37
2019-04-10T18:31:34.799Z,9.93
2019-04-10T18:34:29.054Z,9.13
2019-04-10T18:37:19.893Z,10.17
2019-04-10T18:40:07.501Z,10.93
2019-04-10T18:42:57.540Z,10.10
2019-04-10T18:46:10.731Z,9.90
2019-04-10T18:54:52.056Z,10.80
2019-04-10T18:57:41.004Z,13.73
2019-04-10T19:00:48.551Z,13.27
2019-04-10T19:03:59.665Z,12.23
2019-04-10T19:09:58.312Z,9.00
2019-04-10T19:12:48.773Z,12.30
2019-04-10T19:15:37.154Z,9.10
2019-04-10T19:18:25.937Z,11.80
2019-04-10T19:21:13.484Z,9.17
2019-04-10T19:35:44.106Z,11.77
2019-04-10T19:38:31.636Z,9.30
2019-04-10T19:44:32.383Z,10.10
2019-04-10T19:56:10.975Z,8.55
2019-04-10T19:58:58.858Z,8.53
2019-04-10T20:01:46.532Z,8.53
2019-04-10T20:04:36.808Z,10.57
2019-04-10T20:07:43.219Z,9.97
2019-04-10T20:10:30.781Z,8.80
2019-04-10T20:13:21.431Z,8.40
2019-04-10T20:16:09.171Z,9.07
2019-04-10T20:18:50.789Z,8.60
2019-04-10T20:21:41.871Z,9.80
2019-04-10T20:24:30.392Z,9.10
2019-04-10T20:33:42.983Z,9.20
2019-04-10T20:36:33.276Z,8.23
2019-04-10T20:39:21.116Z,7.40
2019-04-10T21:05:53.910Z,6.73
2019-04-10T21:08:44.610Z,6.37
2019-04-10T21:11:33.296Z,8.20
2019-04-10T21:14:30.102Z,10.10
2019-04-10T21:17:17.663Z,9.03
2019-04-10T21:23:36.411Z,8.37
2019-04-10T21:26:24.077Z,8.83
2019-04-10T21:44:34.935Z,8.90
2019-04-10T21:47:17.378Z,7.90
2019-04-10T22:09:16.719Z,8.30
2019-04-10T22:47:20.417Z,9.30
2019-04-10T22:50:18.072Z,7.77
2019-04-10T22:56:26.292Z,9.20
2019-04-10T22:59:13.786Z,5.73
2019-04-10T23:02:07.334Z,7.10
2019-04-10T23:08:18.233Z,5.97
2019-04-10T23:11:34.791Z,7.87
2019-04-10T23:14:14.369Z,8.77
2019-04-10T23:53:55.398Z,6.43
2019-04-10T23:56:44.787Z,6.70
